sensor_id;sensor_type;location;lat;lon;timestamp;P1;durP1;ratioP1;P2;durP2;ratioP2
40555;SDS011;26250;45.422;11.100;2023-02-01T12:29:34;118.35;;;85.13;;
40555;SDS011;26250;45.422;11.100;2023-02-01T12:32:34;106.85;;;83.53;;
40555;SDS011;26250;45.422;11.100;2023-02-01T12:35:22;120.68;;;83.68;;
40555;SDS011;26250;45.422;11.100;2023-02-01T12:38:11;107.90;;;83.68;;
40555;SDS011;26250;45.422;11.100;2023-02-01T12:43:55;113.45;;;82.45;;
40555;SDS011;26250;45.422;11.100;2023-02-01T12:49:33;107.95;;;81.40;;
40555;SDS011;26250;45.422;11.100;2023-02-01T12:52:14;90.18;;;75.82;;
40555;SDS011;26250;45.422;11.100;2023-02-01T12:54:54;101.72;;;77.88;;
40555;SDS011;26250;45.422;11.100;2023-02-01T12:57:27;120.43;;;81.40;;
40555;SDS011;26250;45.422;11.100;2023-02-01T13:02:59;112.60;;;79.55;;
40555;SDS011;26250;45.422;11.100;2023-02-01T13:05:42;103.65;;;80.22;;
40555;SDS011;26250;45.422;11.100;2023-02-01T13:08:24;141.32;;;84.28;;
40555;SDS011;26250;45.422;11.100;2023-02-01T13:11:00;111.05;;;83.60;;
40555;SDS011;26250;45.422;11.100;2023-02-01T13:16:28;105.35;;;79.97;;
40555;SDS011;26250;45.422;11.100;2023-02-01T13:21:42;110.75;;;82.85;;
40555;SDS011;26250;45.422;11.100;2023-02-01T13:24:22;110.70;;;80.93;;
40555;SDS011;26250;45.422;11.100;2023-02-01T13:26:56;117.75;;;79.38;;
40555;SDS011;26250;45.422;11.100;2023-02-01T13:29:23;102.57;;;79.80;;
40555;SDS011;26250;45.422;11.100;2023-02-01T13:32:08;113.55;;;82.20;;
40555;SDS011;26250;45.422;11.100;2023-02-01T13:40:44;108.30;;;81.55;;
40555;SDS011;26250;45.422;11.100;2023-02-01T13:43:22;123.57;;;84.05;;
40555;SDS011;26250;45.422;11.100;2023-02-01T13:45:53;117.85;;;85.05;;
40555;SDS011;26250;45.422;11.100;2023-02-01T13:48:25;103.95;;;80.95;;
40555;SDS011;26250;45.422;11.100;2023-02-01T13:51:00;103.93;;;82.35;;
40555;SDS011;26250;45.422;11.100;2023-02-01T13:53:34;114.95;;;86.05;;
40555;SDS011;26250;45.422;11.100;2023-02-01T13:56:16;108.65;;;84.20;;
40555;SDS011;26250;45.422;11.100;2023-02-01T13:58:48;107.90;;;85.30;;
40555;SDS011;26250;45.422;11.100;2023-02-01T14:03:48;115.70;;;83.60;;
40555;SDS011;26250;45.422;11.100;2023-02-01T14:11:41;111.60;;;85.38;;
40555;SDS011;26250;45.422;11.100;2023-02-01T14:17:29;106.07;;;82.05;;
40555;SDS011;26250;45.422;11.100;2023-02-01T14:19:29;114.10;;;82.47;;
40555;SDS011;26250;45.422;11.100;2023-02-01T14:22:46;102.30;;;82.38;;
40555;SDS011;26250;45.422;11.100;2023-02-01T14:24:54;116.82;;;84.53;;
40555;SDS011;26250;45.422;11.100;2023-02-01T14:27:34;104.63;;;83.78;;
40555;SDS011;26250;45.422;11.100;2023-02-01T14:30:05;116.13;;;83.93;;
40555;SDS011;26250;45.422;11.100;2023-02-01T14:32:37;105.15;;;84.60;;
40555;SDS011;26250;45.422;11.100;2023-02-01T14:35:17;129.77;;;88.70;;
40555;SDS011;26250;45.422;11.100;2023-02-01T14:37:50;99.38;;;78.22;;
40555;SDS011;26250;45.422;11.100;2023-02-01T14:40:22;105.40;;;82.13;;
40555;SDS011;26250;45.422;11.100;2023-02-01T14:42:51;101.47;;;81.93;;
40555;SDS011;26250;45.422;11.100;2023-02-01T14:50:27;109.85;;;86.38;;
40555;SDS011;26250;45.422;11.100;2023-02-01T15:01:30;109.97;;;82.90;;
40555;SDS011;26250;45.422;11.100;2023-02-01T15:04:00;104.55;;;81.05;;
40555;SDS011;26250;45.422;11.100;2023-02-01T15:06:48;112.55;;;80.38;;
40555;SDS011;26250;45.422;11.100;2023-02-01T15:17:20;112.72;;;80.90;;
40555;SDS011;26250;45.422;11.100;2023-02-01T15:19:55;91.80;;;81.18;;
40555;SDS011;26250;45.422;11.100;2023-02-01T15:22:24;107.40;;;78.40;;
40555;SDS011;26250;45.422;11.100;2023-02-01T15:24:59;107.20;;;81.28;;
40555;SDS011;26250;45.422;11.100;2023-02-01T15:27:27;111.38;;;81.97;;
40555;SDS011;26250;45.422;11.100;2023-02-01T15:30:04;109.40;;;82.22;;
40555;SDS011;26250;45.422;11.100;2023-02-01T15:32:33;118.53;;;80.43;;
40555;SDS011;26250;45.422;11.100;2023-02-01T15:35:04;108.72;;;82.07;;
40555;SDS011;26250;45.422;11.100;2023-02-01T15:37:32;104.65;;;81.28;;
40555;SDS011;26250;45.422;11.100;2023-02-01T15:40:02;106.85;;;84.93;;
40555;SDS011;26250;45.422;11.100;2023-02-01T15:42:37;119.50;;;83.03;;
40555;SDS011;26250;45.422;11.100;2023-02-01T15:45:19;106.72;;;82.60;;
40555;SDS011;26250;45.422;11.100;2023-02-01T15:47:55;96.97;;;78.18;;
40555;SDS011;26250;45.422;11.100;2023-02-01T15:50:24;112.65;;;81.28;;
40555;SDS011;26250;45.422;11.100;2023-02-01T15:52:52;96.88;;;77.47;;
40555;SDS011;26250;45.422;11.100;2023-02-01T15:58:18;106.43;;;76.88;;
40555;SDS011;26250;45.422;11.100;2023-02-01T16:00:50;93.45;;;77.32;;
40555;SDS011;26250;45.422;11.100;2023-02-01T16:03:34;97.60;;;72.80;;
40555;SDS011;26250;45.422;11.100;2023-02-01T16:06:06;99.78;;;74.65;;
40555;SDS011;26250;45.422;11.100;2023-02-01T16:08:34;105.15;;;77.05;;
40555;SDS011;26250;45.422;11.100;2023-02-01T16:16:02;116.55;;;75.60;;
40555;SDS011;26250;45.422;11.100;2023-02-01T16:18:34;97.93;;;75.85;;
40555;SDS011;26250;45.422;11.100;2023-02-01T16:21:01;103.97;;;76.68;;
40555;SDS011;26250;45.422;11.100;2023-02-01T16:23:28;94.55;;;76.32;;
40555;SDS011;26250;45.422;11.100;2023-02-01T16:25:57;113.63;;;81.07;;
40555;SDS011;26250;45.422;11.100;2023-02-01T16:28:24;95.85;;;78.13;;
40555;SDS011;26250;45.422;11.100;2023-02-01T16:30:52;91.80;;;75.72;;
40555;SDS011;26250;45.422;11.100;2023-02-01T16:33:19;102.97;;;78.55;;
40555;SDS011;26250;45.422;11.100;2023-02-01T16:35:48;108.90;;;79.05;;
40555;SDS011;26250;45.422;11.100;2023-02-01T16:38:17;89.07;;;76.07;;
40555;SDS011;26250;45.422;11.100;2023-02-01T16:40:48;115.78;;;80.57;;
40555;SDS011;26250;45.422;11.100;2023-02-01T16:43:20;104.53;;;76.53;;
40555;SDS011;26250;45.422;11.100;2023-02-01T16:45:49;98.38;;;74.90;;
40555;SDS011;26250;45.422;11.100;2023-02-01T16:48:23;103.93;;;77.88;;
40555;SDS011;26250;45.422;11.100;2023-02-01T16:50:53;92.38;;;75.40;;
40555;SDS011;26250;45.422;11.100;2023-02-01T16:53:27;96.75;;;77.07;;
40555;SDS011;26250;45.422;11.100;2023-02-01T16:55:56;123.50;;;77.60;;
40555;SDS011;26250;45.422;11.100;2023-02-01T16:58:26;109.93;;;79.60;;
40555;SDS011;26250;45.422;11.100;2023-02-01T17:00:55;111.80;;;79.45;;
40555;SDS011;26250;45.422;11.100;2023-02-01T17:03:22;93.85;;;74.85;;
40555;SDS011;26250;45.422;11.100;2023-02-01T17:05:50;104.68;;;77.00;;
40555;SDS011;26250;45.422;11.100;2023-02-01T17:08:24;87.10;;;72.45;;
40555;SDS011;26250;45.422;11.100;2023-02-01T17:10:56;86.22;;;72.35;;
40555;SDS011;26250;45.422;11.100;2023-02-01T17:13:23;97.28;;;75.50;;
40555;SDS011;26250;45.422;11.100;2023-02-01T17:15:52;98.03;;;77.43;;
40555;SDS011;26250;45.422;11.100;2023-02-01T17:18:24;103.13;;;78.80;;
40555;SDS011;26250;45.422;11.100;2023-02-01T17:20:57;105.70;;;80.57;;
40555;SDS011;26250;45.422;11.100;2023-02-01T17:23:25;95.50;;;73.97;;
40555;SDS011;26250;45.422;11.100;2023-02-01T17:25:54;90.47;;;73.25;;
40555;SDS011;26250;45.422;11.100;2023-02-01T17:28:22;96.00;;;76.25;;
40555;SDS011;26250;45.422;11.100;2023-02-01T17:30:49;92.93;;;78.85;;
40555;SDS011;26250;45.422;11.100;2023-02-01T17:35:52;100.28;;;79.97;;
40555;SDS011;26250;45.422;11.100;2023-02-01T17:38:21;97.20;;;74.82;;
40555;SDS011;26250;45.422;11.100;2023-02-01T17:40:48;103.22;;;80.72;;
40555;SDS011;26250;45.422;11.100;2023-02-01T17:43:16;107.28;;;83.78;;
40555;SDS011;26250;45.422;11.100;2023-02-01T17:45:54;99.75;;;77.75;;
40555;SDS011;26250;45.422;11.100;2023-02-01T17:48:26;111.40;;;81.07;;
40555;SDS011;26250;45.422;11.100;2023-02-01T17:50:56;91.40;;;73.53;;
40555;SDS011;26250;45.422;11.100;2023-02-01T17:53:26;101.97;;;79.05;;
40555;SDS011;26250;45.422;11.100;2023-02-01T17:55:54;113.00;;;90.30;;
40555;SDS011;26250;45.422;11.100;2023-02-01T17:58:23;128.57;;;93.50;;
40555;SDS011;26250;45.422;11.100;2023-02-01T18:00:51;109.40;;;88.55;;
40555;SDS011;26250;45.422;11.100;2023-02-01T18:05:49;112.72;;;88.88;;
40555;SDS011;26250;45.422;11.100;2023-02-01T18:08:23;117.22;;;90.05;;
40555;SDS011;26250;45.422;11.100;2023-02-01T18:10:52;123.97;;;87.38;;
40555;SDS011;26250;45.422;11.100;2023-02-01T18:13:27;122.22;;;85.82;;
40555;SDS011;26250;45.422;11.100;2023-02-01T18:15:55;106.30;;;78.65;;
40555;SDS011;26250;45.422;11.100;2023-02-01T18:18:25;72.97;;;59.83;;
40555;SDS011;26250;45.422;11.100;2023-02-01T18:20:51;94.90;;;76.88;;
40555;SDS011;26250;45.422;11.100;2023-02-01T18:23:19;104.68;;;78.28;;
40555;SDS011;26250;45.422;11.100;2023-02-01T18:25:49;100.93;;;80.97;;
40555;SDS011;26250;45.422;11.100;2023-02-01T18:28:18;104.00;;;80.18;;
40555;SDS011;26250;45.422;11.100;2023-02-01T18:30:46;114.03;;;79.28;;
40555;SDS011;26250;45.422;11.100;2023-02-01T18:33:16;92.32;;;76.10;;
40555;SDS011;26250;45.422;11.100;2023-02-01T18:35:45;114.40;;;78.53;;
40555;SDS011;26250;45.422;11.100;2023-02-01T18:38:13;104.18;;;78.70;;
40555;SDS011;26250;45.422;11.100;2023-02-01T18:40:54;113.72;;;75.80;;
40555;SDS011;26250;45.422;11.100;2023-02-01T18:43:26;97.88;;;79.03;;
40555;SDS011;26250;45.422;11.100;2023-02-01T18:45:53;91.13;;;79.55;;
40555;SDS011;26250;45.422;11.100;2023-02-01T18:48:20;91.75;;;77.70;;
40555;SDS011;26250;45.422;11.100;2023-02-01T18:50:51;105.65;;;79.18;;
40555;SDS011;26250;45.422;11.100;2023-02-01T18:53:22;95.68;;;82.15;;
40555;SDS011;26250;45.422;11.100;2023-02-01T18:55:53;111.97;;;90.82;;
40555;SDS011;26250;45.422;11.100;2023-02-01T18:58:21;121.25;;;84.93;;
40555;SDS011;26250;45.422;11.100;2023-02-01T19:00:52;114.80;;;81.65;;
40555;SDS011;26250;45.422;11.100;2023-02-01T19:03:20;92.72;;;80.25;;
40555;SDS011;26250;45.422;11.100;2023-02-01T19:05:53;111.07;;;83.57;;
40555;SDS011;26250;45.422;11.100;2023-02-01T19:08:21;100.72;;;83.65;;
40555;SDS011;26250;45.422;11.100;2023-02-01T19:10:49;114.07;;;83.05;;
40555;SDS011;26250;45.422;11.100;2023-02-01T19:13:17;117.70;;;85.75;;
40555;SDS011;26250;45.422;11.100;2023-02-01T19:15:51;113.53;;;89.57;;
40555;SDS011;26250;45.422;11.100;2023-02-01T19:18:18;127.70;;;83.40;;
40555;SDS011;26250;45.422;11.100;2023-02-01T19:20:48;107.95;;;79.97;;
40555;SDS011;26250;45.422;11.100;2023-02-01T19:23:20;102.75;;;80.78;;
40555;SDS011;26250;45.422;11.100;2023-02-01T19:25:47;108.03;;;86.90;;
40555;SDS011;26250;45.422;11.100;2023-02-01T19:28:16;97.85;;;79.43;;
40555;SDS011;26250;45.422;11.100;2023-02-01T19:30:43;114.47;;;85.32;;
40555;SDS011;26250;45.422;11.100;2023-02-01T19:33:10;110.00;;;88.80;;
40555;SDS011;26250;45.422;11.100;2023-02-01T19:35:37;103.22;;;85.50;;
40555;SDS011;26250;45.422;11.100;2023-02-01T19:38:04;98.38;;;80.13;;
40555;SDS011;26250;45.422;11.100;2023-02-01T19:40:32;109.97;;;81.18;;
40555;SDS011;26250;45.422;11.100;2023-02-01T19:42:59;99.63;;;81.05;;
40555;SDS011;26250;45.422;11.100;2023-02-01T19:45:25;116.90;;;84.30;;
40555;SDS011;26250;45.422;11.100;2023-02-01T19:47:52;99.80;;;82.78;;
40555;SDS011;26250;45.422;11.100;2023-02-01T19:50:20;113.18;;;85.55;;
40555;SDS011;26250;45.422;11.100;2023-02-01T19:52:47;111.50;;;82.57;;
40555;SDS011;26250;45.422;11.100;2023-02-01T19:55:14;110.20;;;83.70;;
40555;SDS011;26250;45.422;11.100;2023-02-01T19:57:41;93.30;;;74.50;;
40555;SDS011;26250;45.422;11.100;2023-02-01T20:00:10;93.68;;;76.28;;
40555;SDS011;26250;45.422;11.100;2023-02-01T20:02:43;101.20;;;76.97;;
40555;SDS011;26250;45.422;11.100;2023-02-01T20:05:10;99.32;;;79.72;;
40555;SDS011;26250;45.422;11.100;2023-02-01T20:07:38;99.50;;;77.25;;
40555;SDS011;26250;45.422;11.100;2023-02-01T20:10:05;106.00;;;80.72;;
40555;SDS011;26250;45.422;11.100;2023-02-01T20:12:33;109.43;;;80.30;;
40555;SDS011;26250;45.422;11.100;2023-02-01T20:15:00;93.45;;;76.68;;
40555;SDS011;26250;45.422;11.100;2023-02-01T20:17:27;98.82;;;77.10;;
40555;SDS011;26250;45.422;11.100;2023-02-01T20:19:53;92.57;;;74.68;;
40555;SDS011;26250;45.422;11.100;2023-02-01T20:22:20;103.28;;;72.80;;
40555;SDS011;26250;45.422;11.100;2023-02-01T20:24:47;117.95;;;75.65;;
40555;SDS011;26250;45.422;11.100;2023-02-01T20:27:14;98.20;;;78.88;;
40555;SDS011;26250;45.422;11.100;2023-02-01T20:29:42;92.50;;;78.43;;
40555;SDS011;26250;45.422;11.100;2023-02-01T20:32:09;119.00;;;84.05;;
40555;SDS011;26250;45.422;11.100;2023-02-01T20:34:36;108.78;;;84.78;;
40555;SDS011;26250;45.422;11.100;2023-02-01T20:37:03;99.90;;;76.40;;
40555;SDS011;26250;45.422;11.100;2023-02-01T20:39:30;98.93;;;79.57;;
40555;SDS011;26250;45.422;11.100;2023-02-01T20:41:57;104.68;;;79.32;;
40555;SDS011;26250;45.422;11.100;2023-02-01T20:44:24;82.25;;;70.75;;
40555;SDS011;26250;45.422;11.100;2023-02-01T20:46:51;106.15;;;75.43;;
40555;SDS011;26250;45.422;11.100;2023-02-01T20:49:19;92.95;;;76.35;;
40555;SDS011;26250;45.422;11.100;2023-02-01T20:51:46;92.20;;;73.97;;
40555;SDS011;26250;45.422;11.100;2023-02-01T20:54:12;91.22;;;73.90;;
40555;SDS011;26250;45.422;11.100;2023-02-01T20:56:39;95.80;;;76.68;;
40555;SDS011;26250;45.422;11.100;2023-02-01T20:59:07;101.22;;;80.78;;
40555;SDS011;26250;45.422;11.100;2023-02-01T21:01:36;91.40;;;75.82;;
40555;SDS011;26250;45.422;11.100;2023-02-01T21:04:03;90.68;;;78.80;;
40555;SDS011;26250;45.422;11.100;2023-02-01T21:06:30;92.88;;;75.10;;
40555;SDS011;26250;45.422;11.100;2023-02-01T21:08:56;106.68;;;69.28;;
40555;SDS011;26250;45.422;11.100;2023-02-01T21:11:23;97.38;;;73.60;;
40555;SDS011;26250;45.422;11.100;2023-02-01T21:13:50;93.50;;;74.53;;
40555;SDS011;26250;45.422;11.100;2023-02-01T21:16:18;92.00;;;73.90;;
40555;SDS011;26250;45.422;11.100;2023-02-01T21:18:50;87.70;;;73.35;;
40555;SDS011;26250;45.422;11.100;2023-02-01T21:21:19;86.95;;;74.07;;
40555;SDS011;26250;45.422;11.100;2023-02-01T21:23:46;106.72;;;76.78;;
40555;SDS011;26250;45.422;11.100;2023-02-01T21:26:16;92.10;;;75.78;;
40555;SDS011;26250;45.422;11.100;2023-02-01T21:28:48;102.25;;;79.32;;
40555;SDS011;26250;45.422;11.100;2023-02-01T21:31:17;79.75;;;70.97;;
40555;SDS011;26250;45.422;11.100;2023-02-01T21:33:46;91.68;;;72.75;;
40555;SDS011;26250;45.422;11.100;2023-02-01T21:36:15;102.55;;;76.80;;
40555;SDS011;26250;45.422;11.100;2023-02-01T21:38:45;97.22;;;79.68;;
40555;SDS011;26250;45.422;11.100;2023-02-01T21:41:21;106.88;;;81.07;;
40555;SDS011;26250;45.422;11.100;2023-02-01T21:44:08;93.13;;;80.70;;
40555;SDS011;26250;45.422;11.100;2023-02-01T21:46:40;100.40;;;79.75;;
40555;SDS011;26250;45.422;11.100;2023-02-01T21:49:08;95.38;;;74.32;;
40555;SDS011;26250;45.422;11.100;2023-02-01T21:51:38;90.70;;;73.28;;
40555;SDS011;26250;45.422;11.100;2023-02-01T21:54:06;84.25;;;70.78;;
40555;SDS011;26250;45.422;11.100;2023-02-01T21:56:36;80.28;;;65.78;;
40555;SDS011;26250;45.422;11.100;2023-02-01T21:59:03;66.82;;;59.70;;
40555;SDS011;26250;45.422;11.100;2023-02-01T22:01:31;75.88;;;65.30;;
40555;SDS011;26250;45.422;11.100;2023-02-01T22:03:58;91.45;;;72.28;;
40555;SDS011;26250;45.422;11.100;2023-02-01T22:06:30;84.25;;;70.00;;
40555;SDS011;26250;45.422;11.100;2023-02-01T22:08:59;84.57;;;66.18;;
40555;SDS011;26250;45.422;11.100;2023-02-01T22:11:26;73.93;;;63.13;;
40555;SDS011;26250;45.422;11.100;2023-02-01T22:13:53;94.80;;;68.47;;
40555;SDS011;26250;45.422;11.100;2023-02-01T22:16:20;86.13;;;72.78;;
40555;SDS011;26250;45.422;11.100;2023-02-01T22:18:51;87.30;;;69.97;;
40555;SDS011;26250;45.422;11.100;2023-02-01T22:21:19;90.20;;;73.68;;
40555;SDS011;26250;45.422;11.100;2023-02-01T22:23:50;89.82;;;72.32;;
40555;SDS011;26250;45.422;11.100;2023-02-01T22:26:20;77.60;;;62.60;;
40555;SDS011;26250;45.422;11.100;2023-02-01T22:28:47;89.57;;;64.60;;
40555;SDS011;26250;45.422;11.100;2023-02-01T22:31:15;86.07;;;71.32;;
40555;SDS011;26250;45.422;11.100;2023-02-01T22:33:43;95.03;;;70.32;;
40555;SDS011;26250;45.422;11.100;2023-02-01T22:36:13;93.30;;;72.72;;
40555;SDS011;26250;45.422;11.100;2023-02-01T22:38:42;83.78;;;69.45;;
40555;SDS011;26250;45.422;11.100;2023-02-01T22:41:10;78.72;;;66.05;;
40555;SDS011;26250;45.422;11.100;2023-02-01T22:43:38;94.32;;;72.70;;
40555;SDS011;26250;45.422;11.100;2023-02-01T22:46:15;82.13;;;70.07;;
40555;SDS011;26250;45.422;11.100;2023-02-01T22:48:45;92.30;;;73.22;;
40555;SDS011;26250;45.422;11.100;2023-02-01T22:51:13;84.70;;;70.30;;
40555;SDS011;26250;45.422;11.100;2023-02-01T22:53:42;93.25;;;69.30;;
40555;SDS011;26250;45.422;11.100;2023-02-01T22:56:10;87.75;;;70.47;;
40555;SDS011;26250;45.422;11.100;2023-02-01T22:58:38;79.78;;;71.25;;
40555;SDS011;26250;45.422;11.100;2023-02-01T23:01:09;84.97;;;68.35;;
40555;SDS011;26250;45.422;11.100;2023-02-01T23:03:37;87.35;;;73.53;;
40555;SDS011;26250;45.422;11.100;2023-02-01T23:06:05;93.32;;;76.30;;
40555;SDS011;26250;45.422;11.100;2023-02-01T23:08:33;92.28;;;72.18;;
